• Join FlightAware (Why Join?)
  • Login
  • US Flag 
11:58AM EDT


 

Airport Tracker/Info


-or-


 

Live Flight TrackerFlight Track Log ✈ USC105 ✈ 14-May-2013 ✈ KLCK - KBKL

Flight Track Log - Related Links

Times and Time Zones

All times are in EDT time to prevent confusion due to time zone crossing. See the USC105 flight status page for this flight to view local times or setup timezone preferences in your user account.

Time Position Orientation Groundspeed Altitude Reporting Facility
EDT Latitude Longitude Course Direction KTS MPH feet Rate Location/Type
09:58PM 39.8197 -82.9219 17° North 137 158 900  Level Indianapolis Center
09:59PM 39.8519 -82.9094 17° North 134 154 1,800 1,080 Climbing Indianapolis Center
10:00PM 39.8875 -82.9081 North 134 154 3,000 1,080 Climbing Indianapolis Center
10:01PM 39.9233 -82.9039 North 128 147 4,000 1,080 Climbing Indianapolis Center
10:02PM 39.9603 -82.8864 20° North 140 161 5,200 1,080 Climbing Indianapolis Center
10:03PM 39.9911 -82.8625 31° Northeast 131 151 6,200 840 Climbing Indianapolis Center
10:04PM 40.0219 -82.8389 30° Northeast 129 148 7,000 300 Climbing Indianapolis Center
10:05PM 40.0731 -82.7986 31° Northeast 170 196 7,000  Level Indianapolis Center
10:06PM 40.1058 -82.7747 29° Northeast 177 204 7,000  Level Indianapolis Center
10:07PM 40.1497 -82.7417 30° Northeast 182 209 7,000  Level Indianapolis Center
10:07PM 40.1600 -82.7322 35° Northeast 184 212 7,000  Level Indianapolis Center
10:08PM 40.1939 -82.7056 31° Northeast 190 219 7,000  Level Indianapolis Center
10:08PM 40.2044 -82.6969 32° Northeast 184 212 7,000  Level Indianapolis Center
10:09PM 40.2400 -82.6725 28° Northeast 188 216 7,000  Level Indianapolis Center
10:09PM 40.2497 -82.6628 37° Northeast 187 215 7,000  Level Indianapolis Center
10:10PM 40.2950 -82.6281 30° Northeast 188 216 7,000  Level Indianapolis Center
10:11PM 40.3406 -82.5942 30° Northeast 187 215 7,000  Level Indianapolis Center
10:12PM 40.3869 -82.5592 30° Northeast 190 219 7,000  Level Indianapolis Center
10:13PM 40.4331 -82.5233 31° Northeast 191 220 7,000  Level Indianapolis Center
10:14PM 40.4800 -82.4883 30° Northeast 193 222 7,000  Level Indianapolis Center
10:15PM 40.5253 -82.4525 31° Northeast 190 219 7,000  Level Indianapolis Center
10:16PM 40.5711 -82.4150 32° Northeast 190 219 7,000 -60 Level Indianapolis Center
10:17PM 40.6169 -82.3800 30° Northeast 190 219 6,900 -480 Descending Indianapolis Center
10:18PM 40.6667 -82.3422 30° Northeast 202 232 6,100 -840 Descending Indianapolis Center
10:19PM 40.7106 -82.3117 28° Northeast 222 255 5,500 -780 Descending Cleveland Center
10:20PM 40.7550 -82.2797 29° Northeast 221 254 5,000 -300 Descending Cleveland Center
10:21PM 40.8056 -82.2400 31° Northeast 214 246 5,000  Level Cleveland Center
10:22PM 40.8542 -82.1972 34° Northeast 202 232 5,000  Level Cleveland Center
10:23PM 40.9025 -82.1628 28° Northeast 204 235 5,000  Level Cleveland Center
10:24PM 40.9531 -82.1256 29° Northeast 205 236 5,000  Level Cleveland Center
10:25PM 41.0017 -82.0853 32° Northeast 205 236 5,000  Level Cleveland Center
10:26PM 41.0564 -82.0481 27° Northeast 204 235 5,000  Level Cleveland Center
10:27PM 41.1069 -82.0050 33° Northeast 205 236 5,000  Level Cleveland Center
10:28PM 41.1575 -81.9647 31° Northeast 204 235 5,000  Level Cleveland Center
10:29PM 41.2058 -81.9272 30° Northeast 206 237 5,000  Level Cleveland Center
10:30PM 41.2500 -81.8811 38° Northeast 204 235 5,000  Level Cleveland Center
10:31PM 41.2967 -81.8269 41° Northeast 202 232 5,000 -480 Level Cleveland Center
10:32PM 41.3428 -81.7808 37° Northeast 222 255 4,100 -600 Descending Cleveland Center
10:33PM 41.3872 -81.7372 36° Northeast 204 235 3,900 -600 Descending Cleveland Center
10:34PM 41.4272 -81.6769 48° Northeast 222 255 3,000 -840 Descending Cleveland Center
10:35PM 41.4736 -81.6281 38° Northeast 214 246 2,300 -540 Descending Cleveland Center
10:36PM 41.5236 -81.6258 North 176 203 2,000 -660 Descending Cleveland Center
10:37PM 41.5275 -81.6592 279° West 103 119 1,000 -1,020 Descending Cleveland Center